Aviation Digital Data Service (ADDS)

Output produced by METARs form (1700 UTC 23 September 2020)
found at http://aviationweather.gov/metar/data/
 
KLBX 231653Z AUTO 32011G16KT 10SM OVC012 24/21 A2985 RMK AO2 SLP109 T02440206
KLBX 231607Z AUTO 31011G19KT 10SM OVC010 23/21 A2986 RMK AO2 T02280206
KLBX 231502Z 2315/2412 31012KT P6SM OVC009 
     TEMPO 2315/2316 4SM BR OVC006 
     FM231600 32012G18KT P6SM BKN010 OVC015 
     FM240000 34007KT P6SM OVC015 
     FM240600 34003KT P6SM BKN015 BKN050